Pixley, California
Current Conditions -  °F | °C
As of 11:55 AM on Friday 24 Oct 2014 (Local Time) from KPTV Reporting Station
Clear Clear  
Wind Chill: 75°   Ceiling: Unl
Heat Index: 75°   Visibility: 10mi
Dew Point: 48°   Wind: 0mph
Humidity: 38%   Direction: NA
Pressure: 29.99"   Gusts: NA
Location:  35.97°N, 119.29°W
Report Text: KPTV 241855Z 00000KT 10SM CLR 24/09 A2999 RMK AO1
Loading
Personal Weather Stations






























Interactive Weather Map
Tropical Storm Tracking
New forecast layout! Learn more

10-Day Weather Forecast

Advertisements
Track Severe Weather on mobile